createdAt,value
2022-10-15T00:02:37.756Z,64.04
2022-10-15T00:05:55.681Z,63.90
2022-10-15T00:09:04.945Z,63.69
2022-10-15T00:12:20.707Z,63.80
2022-10-15T00:15:33.541Z,63.73
2022-10-15T00:18:50.812Z,63.45
2022-10-15T00:22:03.039Z,63.43
2022-10-15T00:25:16.384Z,63.50
2022-10-15T00:28:33.516Z,63.29
2022-10-15T00:31:50.760Z,63.38
2022-10-15T00:35:09.776Z,63.28
2022-10-15T00:38:21.783Z,63.26
2022-10-15T00:41:41.280Z,62.79
2022-10-15T00:44:56.091Z,62.26
2022-10-15T00:48:01.640Z,61.37
2022-10-15T00:51:06.072Z,60.62
2022-10-15T00:54:11.072Z,59.73
2022-10-15T00:57:15.321Z,58.96
2022-10-15T01:00:20.988Z,58.09
2022-10-15T01:03:28.532Z,57.35
2022-10-15T01:06:47.356Z,56.63
2022-10-15T01:09:58.169Z,55.98
2022-10-15T01:13:15.694Z,55.50
2022-10-15T01:16:25.171Z,55.19
2022-10-15T01:20:14.987Z,54.53
2022-10-15T01:23:48.478Z,54.16
2022-10-15T01:27:37.233Z,53.45
2022-10-15T01:30:53.611Z,52.72
2022-10-15T01:34:03.826Z,52.23
2022-10-15T01:37:22.513Z,51.44
2022-10-15T01:40:47.282Z,51.08
2022-10-15T01:44:08.296Z,50.29
2022-10-15T01:47:39.747Z,50.02
2022-10-15T01:50:47.884Z,49.48
2022-10-15T01:53:52.635Z,48.67
2022-10-15T01:56:58.189Z,47.84
2022-10-15T02:00:04.012Z,47.35
2022-10-15T02:03:17.382Z,46.90
2022-10-15T02:06:26.766Z,46.16
2022-10-15T02:09:39.657Z,45.82
2022-10-15T02:12:54.944Z,45.00
2022-10-15T02:16:08.480Z,44.55
2022-10-15T02:19:19.183Z,44.57
2022-10-15T02:22:27.949Z,44.45
2022-10-15T02:25:35.295Z,43.86
2022-10-15T02:28:40.336Z,43.82
2022-10-15T02:31:47.761Z,43.29
2022-10-15T02:34:53.753Z,42.71
2022-10-15T02:38:03.403Z,42.66
2022-10-15T02:41:10.219Z,42.09
2022-10-15T02:44:13.365Z,42.24
2022-10-15T02:47:16.913Z,42.12
2022-10-15T02:50:21.440Z,42.12
2022-10-15T02:53:24.900Z,41.62
2022-10-15T02:59:35.894Z,40.71
2022-10-15T03:02:41.297Z,39.58
2022-10-15T03:05:47.136Z,38.99
2022-10-15T03:08:52.741Z,38.11
2022-10-15T03:12:02.653Z,37.82
2022-10-15T03:15:14.281Z,37.33
2022-10-15T03:18:22.781Z,36.48
2022-10-15T03:21:32.690Z,36.07
2022-10-15T03:24:55.064Z,35.58
2022-10-15T03:28:06.526Z,34.93
2022-10-15T03:34:30.700Z,32.42
2022-10-15T03:37:34.604Z,32.64
2022-10-15T03:40:38.356Z,32.55
2022-10-15T03:43:53.907Z,32.26
2022-10-15T03:46:57.101Z,31.86
2022-10-15T03:50:06.909Z,31.48
2022-10-15T03:53:11.839Z,31.00
2022-10-15T03:56:15.105Z,30.84
2022-10-15T03:59:18.314Z,30.35
2022-10-15T04:02:33.139Z,31.20
2022-10-15T04:05:37.802Z,31.29
2022-10-15T04:08:48.997Z,30.99
2022-10-15T04:12:07.210Z,31.00
2022-10-15T04:15:15.782Z,31.14
2022-10-15T04:18:26.190Z,30.92
2022-10-15T04:21:33.644Z,30.62
2022-10-15T04:24:39.406Z,30.41
2022-10-15T04:27:43.513Z,30.09
2022-10-15T04:30:49.606Z,30.07
2022-10-15T04:33:56.077Z,29.87
2022-10-15T04:37:00.834Z,29.76
2022-10-15T04:40:05.988Z,29.51
2022-10-15T04:43:09.147Z,29.36
2022-10-15T04:46:12.541Z,29.25
2022-10-15T04:49:16.155Z,29.20
2022-10-15T04:52:20.958Z,29.01
2022-10-15T04:55:29.202Z,28.56
2022-10-15T04:58:37.141Z,28.36
2022-10-15T05:01:40.445Z,28.18
2022-10-15T05:04:45.779Z,28.10
2022-10-15T05:07:50.529Z,28.26
2022-10-15T05:10:53.997Z,32.08
2022-10-15T05:13:58.563Z,31.96
2022-10-15T05:17:03.179Z,31.78
2022-10-15T05:20:11.822Z,32.25
2022-10-15T05:23:16.615Z,32.43
2022-10-15T05:26:29.404Z,32.06
2022-10-15T05:29:32.747Z,32.61
2022-10-15T05:32:36.361Z,32.82
2022-10-15T05:35:40.275Z,44.61
2022-10-15T05:38:45.264Z,44.67
2022-10-15T05:41:49.479Z,45.03
2022-10-15T05:44:52.833Z,44.53
2022-10-15T05:47:57.915Z,44.86
2022-10-15T05:51:05.366Z,44.82
2022-10-15T05:54:10.038Z,44.67
2022-10-15T05:57:14.656Z,44.64
2022-10-15T06:00:17.970Z,44.79
2022-10-15T06:03:29.698Z,44.83
2022-10-15T06:06:32.834Z,44.99
2022-10-15T06:09:37.339Z,44.74
2022-10-15T06:12:40.902Z,43.94
2022-10-15T06:15:46.593Z,43.44
2022-10-15T06:18:49.973Z,43.20
2022-10-15T06:21:53.062Z,42.92
2022-10-15T06:24:57.574Z,42.06
2022-10-15T06:28:03.466Z,42.16
2022-10-15T06:31:15.639Z,41.30
2022-10-15T06:34:18.966Z,41.07
2022-10-15T06:37:22.514Z,40.97
2022-10-15T06:40:28.815Z,41.00
2022-10-15T06:43:34.145Z,40.08
2022-10-15T06:46:38.591Z,39.75
2022-10-15T06:49:41.711Z,39.64
2022-10-15T06:52:44.860Z,39.93
2022-10-15T06:55:49.354Z,40.03
2022-10-15T06:58:52.555Z,40.47
2022-10-15T07:01:55.681Z,40.68
2022-10-15T07:04:58.810Z,41.17
2022-10-15T07:08:02.353Z,41.73
2022-10-15T07:11:09.749Z,42.26
2022-10-15T07:14:12.846Z,42.37
2022-10-15T07:17:16.561Z,42.67
2022-10-15T07:20:23.508Z,43.12
2022-10-15T07:23:28.325Z,43.54
2022-10-15T07:26:32.818Z,43.67
2022-10-15T07:29:38.466Z,43.64
2022-10-15T07:32:43.552Z,43.96
2022-10-15T07:35:48.884Z,43.95
2022-10-15T07:38:52.086Z,43.32
2022-10-15T07:41:56.768Z,44.54
2022-10-15T07:44:59.825Z,45.77
2022-10-15T07:48:03.117Z,46.90
2022-10-15T07:51:08.251Z,48.44
2022-10-15T07:54:11.469Z,49.63
2022-10-15T07:57:15.948Z,50.65
2022-10-15T08:00:19.323Z,51.80
2022-10-15T08:03:22.836Z,53.19
2022-10-15T08:06:26.057Z,54.20
2022-10-15T08:09:29.287Z,55.76
2022-10-15T08:12:33.742Z,55.99
2022-10-15T08:15:40.130Z,56.45
2022-10-15T08:18:44.758Z,57.46
2022-10-15T08:21:47.910Z,58.51
2022-10-15T08:24:52.485Z,58.99
2022-10-15T08:27:57.356Z,59.63
2022-10-15T08:31:04.409Z,59.44
2022-10-15T08:34:09.374Z,59.83
2022-10-15T08:37:12.518Z,59.72
2022-10-15T08:40:16.335Z,59.70
2022-10-15T08:43:24.704Z,59.65
2022-10-15T08:46:35.940Z,59.87
2022-10-15T08:49:46.291Z,60.21
2022-10-15T08:52:51.323Z,60.26
2022-10-15T08:55:58.034Z,60.61
2022-10-15T08:59:09.864Z,61.25
2022-10-15T09:02:20.217Z,62.17
2022-10-15T09:05:33.195Z,63.43
2022-10-15T09:08:43.553Z,64.90
2022-10-15T09:11:58.017Z,65.95
2022-10-15T09:15:04.665Z,67.09
2022-10-15T09:18:17.931Z,67.22
2022-10-15T09:21:23.151Z,67.75
2022-10-15T09:24:29.080Z,68.47
2022-10-15T09:27:35.134Z,69.71
2022-10-15T09:34:34.173Z,71.08
2022-10-15T09:37:50.143Z,74.35
2022-10-15T09:41:02.876Z,76.66
2022-10-15T09:44:24.307Z,78.31
2022-10-15T09:47:30.955Z,79.69
2022-10-15T09:50:43.786Z,80.68
2022-10-15T09:53:58.245Z,81.80
2022-10-15T09:57:01.773Z,82.85
2022-10-15T10:00:10.126Z,82.15
2022-10-15T10:03:16.534Z,83.07
2022-10-15T10:06:23.751Z,80.34
2022-10-15T10:09:31.710Z,79.33
2022-10-15T10:12:37.072Z,73.07
2022-10-15T10:15:42.966Z,72.35
2022-10-15T10:19:05.119Z,55.79
2022-10-15T10:22:15.630Z,49.65
2022-10-15T10:25:38.609Z,44.40
2022-10-15T10:28:47.887Z,44.50
2022-10-15T10:31:53.025Z,46.20
2022-10-15T10:35:23.426Z,51.49
2022-10-15T10:38:30.994Z,58.41
2022-10-15T10:41:51.283Z,62.70
2022-10-15T10:44:55.028Z,70.50
2022-10-15T10:48:00.566Z,74.95
2022-10-15T10:51:09.244Z,85.82
2022-10-15T10:54:15.058Z,100.00
2022-10-15T10:57:26.873Z,100.00
2022-10-15T11:00:38.145Z,100.00
2022-10-15T11:03:44.839Z,100.00
2022-10-15T11:06:58.537Z,100.00
2022-10-15T11:10:12.057Z,100.00
2022-10-15T11:13:36.045Z,100.00
2022-10-15T11:16:49.718Z,100.00
2022-10-15T11:23:39.881Z,100.00
2022-10-15T11:27:09.864Z,100.00
2022-10-15T11:30:31.913Z,100.00
2022-10-15T11:33:46.553Z,100.00
2022-10-15T11:37:06.646Z,100.00
2022-10-15T11:40:22.265Z,100.00
2022-10-15T11:43:40.669Z,100.00
2022-10-15T11:46:51.490Z,100.00
2022-10-15T11:50:09.368Z,100.00
2022-10-15T11:53:46.280Z,100.00
2022-10-15T11:56:53.293Z,100.00
2022-10-15T12:00:03.638Z,100.00
2022-10-15T12:03:20.163Z,100.00
2022-10-15T12:06:29.671Z,100.00
2022-10-15T12:09:35.270Z,100.00
2022-10-15T12:12:42.467Z,100.00
2022-10-15T12:15:54.652Z,100.00
2022-10-15T12:19:08.622Z,100.00
2022-10-15T12:22:12.629Z,100.00
2022-10-15T12:25:46.705Z,100.00
2022-10-15T12:28:53.234Z,100.00
2022-10-15T12:31:57.825Z,100.00
2022-10-15T12:35:06.667Z,100.00
2022-10-15T12:38:22.740Z,100.00
2022-10-15T12:41:38.422Z,100.00
2022-10-15T12:44:41.544Z,100.00
2022-10-15T12:47:54.940Z,100.00
2022-10-15T12:51:37.709Z,100.00
2022-10-15T12:54:41.950Z,100.00
2022-10-15T12:58:03.505Z,100.00
2022-10-15T13:01:08.757Z,100.00
2022-10-15T13:04:13.402Z,100.00
2022-10-15T13:07:16.668Z,100.00
2022-10-15T13:10:24.314Z,100.00
2022-10-15T13:13:30.405Z,100.00
2022-10-15T13:16:33.583Z,100.00
2022-10-15T13:19:42.043Z,100.00
2022-10-15T13:22:45.174Z,100.00
2022-10-15T13:25:48.392Z,100.00
2022-10-15T13:28:52.923Z,100.00
2022-10-15T13:31:58.685Z,100.00
2022-10-15T13:35:11.554Z,100.00
2022-10-15T13:38:22.031Z,100.00
2022-10-15T13:41:28.298Z,100.00
2022-10-15T13:44:31.701Z,100.00
2022-10-15T13:47:36.802Z,100.00
2022-10-15T13:50:41.540Z,100.00
2022-10-15T13:53:45.089Z,100.00
2022-10-15T13:56:54.267Z,100.00
2022-10-15T13:59:57.586Z,100.00
2022-10-15T14:03:19.895Z,100.00
2022-10-15T14:06:26.789Z,100.00
2022-10-15T14:09:33.340Z,100.00
2022-10-15T14:12:36.796Z,100.00
2022-10-15T14:15:45.591Z,100.00
2022-10-15T14:18:51.982Z,100.00
2022-10-15T14:21:57.318Z,100.00
2022-10-15T14:25:01.265Z,100.00
2022-10-15T14:28:04.733Z,100.00
2022-10-15T14:31:08.760Z,100.00
2022-10-15T14:34:36.110Z,100.00
2022-10-15T14:37:42.534Z,100.00
2022-10-15T14:40:59.338Z,100.00
2022-10-15T14:44:17.783Z,100.00
2022-10-15T14:47:24.859Z,100.00
2022-10-15T14:50:32.614Z,100.00
2022-10-15T14:53:40.150Z,100.00
2022-10-15T14:56:43.851Z,100.00
2022-10-15T14:59:47.507Z,100.00
2022-10-15T15:02:51.393Z,100.00
2022-10-15T15:05:56.964Z,100.00
2022-10-15T15:09:02.162Z,100.00
2022-10-15T15:12:05.897Z,100.00
2022-10-15T15:15:15.724Z,100.00
2022-10-15T15:18:19.700Z,100.00
2022-10-15T15:21:24.762Z,100.00
2022-10-15T15:24:29.241Z,100.00
2022-10-15T15:27:37.537Z,100.00
2022-10-15T15:34:30.594Z,100.00
2022-10-15T15:37:33.739Z,100.00
2022-10-15T15:40:37.079Z,100.00
2022-10-15T15:43:40.973Z,100.00
2022-10-15T15:46:44.126Z,100.00
2022-10-15T15:49:48.683Z,100.00
2022-10-15T15:52:51.938Z,100.00
2022-10-15T15:55:55.177Z,100.00
2022-10-15T15:58:58.484Z,100.00
2022-10-15T16:02:02.038Z,100.00
2022-10-15T16:05:08.295Z,100.00
2022-10-15T16:08:13.468Z,100.00
2022-10-15T16:11:17.152Z,100.00
2022-10-15T16:14:20.487Z,100.00
2022-10-15T16:17:24.268Z,100.00
2022-10-15T16:20:29.297Z,100.00
2022-10-15T16:23:32.477Z,100.00
2022-10-15T16:26:35.692Z,100.00
2022-10-15T16:29:38.972Z,100.00
2022-10-15T16:32:43.731Z,100.00
2022-10-15T16:35:54.110Z,100.00
2022-10-15T16:38:57.290Z,100.00
2022-10-15T16:42:01.294Z,100.00
2022-10-15T16:45:05.498Z,100.00
2022-10-15T16:48:08.725Z,100.00
2022-10-15T16:51:16.620Z,100.00
2022-10-15T16:54:19.990Z,100.00
2022-10-15T16:57:25.038Z,100.00
2022-10-15T17:00:29.001Z,100.00
2022-10-15T17:03:34.106Z,100.00
2022-10-15T17:06:38.588Z,100.00
2022-10-15T17:09:42.068Z,100.00
2022-10-15T17:12:45.398Z,100.00
2022-10-15T17:15:48.758Z,100.00
2022-10-15T17:18:52.974Z,100.00
2022-10-15T17:21:57.486Z,100.00
2022-10-15T17:25:00.913Z,100.00
2022-10-15T17:28:04.248Z,100.00
2022-10-15T17:31:09.669Z,100.00
2022-10-15T17:34:14.022Z,100.00
2022-10-15T17:37:18.960Z,100.00
2022-10-15T17:40:22.221Z,100.00
2022-10-15T17:43:25.436Z,100.00
2022-10-15T17:46:30.536Z,100.00
2022-10-15T17:49:33.695Z,100.00
2022-10-15T17:52:38.174Z,100.00
2022-10-15T17:55:41.292Z,100.00
2022-10-15T17:58:45.730Z,100.00
2022-10-15T18:01:59.150Z,100.00
2022-10-15T18:05:03.293Z,100.00
2022-10-15T18:08:08.951Z,100.00
2022-10-15T18:11:13.773Z,100.00
2022-10-15T18:14:16.913Z,100.00
2022-10-15T18:17:20.304Z,100.00
2022-10-15T18:20:24.082Z,100.00
2022-10-15T18:23:29.960Z,100.00
2022-10-15T18:26:33.211Z,100.00
2022-10-15T18:29:36.465Z,100.00
2022-10-15T18:32:40.100Z,100.00
2022-10-15T18:35:43.193Z,100.00
2022-10-15T18:38:47.743Z,100.00
2022-10-15T18:41:50.999Z,100.00
2022-10-15T18:44:54.361Z,100.00
2022-10-15T18:47:57.549Z,100.00
2022-10-15T18:51:01.376Z,100.00
2022-10-15T18:54:07.394Z,100.00
2022-10-15T18:57:10.738Z,100.00
2022-10-15T19:00:15.316Z,100.00
2022-10-15T19:03:18.886Z,100.00
2022-10-15T19:06:24.328Z,100.00
2022-10-15T19:09:29.224Z,100.00
2022-10-15T19:12:32.406Z,100.00
2022-10-15T19:15:36.714Z,100.00
2022-10-15T19:18:39.898Z,100.00
2022-10-15T19:21:43.063Z,100.00
2022-10-15T19:24:47.632Z,100.00
2022-10-15T19:27:51.030Z,100.00
2022-10-15T19:30:58.845Z,89.80
2022-10-15T19:34:02.189Z,83.18
2022-10-15T19:37:07.683Z,81.29
2022-10-15T19:40:21.407Z,81.99
2022-10-15T19:43:24.902Z,77.29
2022-10-15T19:46:29.211Z,75.34
2022-10-15T19:49:33.855Z,80.77
2022-10-15T19:52:37.189Z,85.79
2022-10-15T19:55:41.696Z,90.07
2022-10-15T19:58:44.861Z,89.50
2022-10-15T20:01:48.030Z,100.00
2022-10-15T20:04:55.617Z,100.00
2022-10-15T20:07:58.837Z,100.00
2022-10-15T20:11:07.765Z,100.00
2022-10-15T20:14:12.949Z,100.00
2022-10-15T20:17:16.080Z,100.00
2022-10-15T20:20:19.293Z,100.00
2022-10-15T20:23:23.587Z,100.00
2022-10-15T20:26:28.214Z,100.00
2022-10-15T20:29:34.638Z,100.00
2022-10-15T20:32:38.168Z,100.00
2022-10-15T20:35:42.790Z,100.00
2022-10-15T20:38:46.226Z,100.00
2022-10-15T20:41:52.621Z,100.00
2022-10-15T20:44:55.810Z,100.00
2022-10-15T20:47:59.614Z,100.00
2022-10-15T20:51:02.839Z,100.00
2022-10-15T20:54:06.484Z,100.00
2022-10-15T20:57:12.606Z,100.00
2022-10-15T21:00:15.952Z,100.00
2022-10-15T21:03:19.486Z,100.00
2022-10-15T21:06:23.091Z,100.00
2022-10-15T21:09:26.401Z,100.00
2022-10-15T21:12:30.873Z,100.00
2022-10-15T21:15:34.559Z,100.00
2022-10-15T21:18:38.558Z,97.85
2022-10-15T21:21:42.013Z,95.09
2022-10-15T21:24:45.137Z,100.00
2022-10-15T21:27:49.670Z,100.00
2022-10-15T21:34:29.455Z,100.00
2022-10-15T21:37:34.803Z,100.00
2022-10-15T21:40:38.052Z,100.00
2022-10-15T21:43:41.264Z,100.00
2022-10-15T21:46:44.922Z,100.00
2022-10-15T21:49:49.453Z,100.00
2022-10-15T21:52:53.362Z,100.00
2022-10-15T21:55:59.293Z,100.00
2022-10-15T21:59:12.390Z,100.00
2022-10-15T22:02:32.105Z,100.00
2022-10-15T22:05:53.236Z,100.00
2022-10-15T22:09:19.242Z,100.00
2022-10-15T22:13:00.784Z,100.00
2022-10-15T22:16:13.105Z,100.00
2022-10-15T22:19:35.563Z,100.00
2022-10-15T22:23:19.021Z,100.00
2022-10-15T22:27:10.596Z,100.00
2022-10-15T22:30:26.089Z,100.00
2022-10-15T22:33:31.775Z,100.00
2022-10-15T22:36:37.386Z,100.00
2022-10-15T22:39:49.624Z,100.00
2022-10-15T22:43:07.197Z,100.00
2022-10-15T22:46:43.065Z,100.00
2022-10-15T22:50:06.249Z,100.00
2022-10-15T22:53:30.275Z,100.00
2022-10-15T22:56:35.335Z,100.00
2022-10-15T22:59:41.906Z,100.00
2022-10-15T23:02:46.162Z,100.00
2022-10-15T23:05:54.820Z,100.00
2022-10-15T23:08:59.422Z,100.00
2022-10-15T23:12:04.026Z,100.00
2022-10-15T23:15:08.049Z,100.00
2022-10-15T23:18:11.253Z,100.00
2022-10-15T23:21:16.988Z,100.00
2022-10-15T23:24:23.000Z,100.00
2022-10-15T23:27:28.252Z,100.00
2022-10-15T23:30:34.538Z,100.00
2022-10-15T23:33:38.094Z,100.00
2022-10-15T23:36:41.328Z,100.00
2022-10-15T23:39:44.971Z,100.00
2022-10-15T23:42:49.878Z,100.00
2022-10-15T23:46:08.791Z,100.00
2022-10-15T23:49:12.294Z,100.00
2022-10-15T23:52:15.530Z,100.00
2022-10-15T23:55:31.640Z,100.00
2022-10-15T23:58:55.241Z,100.00
